createdAt,value
2022-12-20T00:02:07.381Z,7.00
2022-12-20T00:04:36.324Z,7.00
2022-12-20T00:07:05.110Z,7.20
2022-12-20T00:09:35.243Z,7.20
2022-12-20T00:12:04.101Z,7.20
2022-12-20T00:14:32.606Z,7.20
2022-12-20T00:17:03.793Z,7.20
2022-12-20T00:19:32.479Z,7.20
2022-12-20T00:22:00.896Z,7.20
2022-12-20T00:24:29.350Z,7.20
2022-12-20T00:27:00.103Z,7.10
2022-12-20T00:29:28.709Z,6.90
2022-12-20T00:31:57.318Z,6.90
2022-12-20T00:34:29.006Z,6.90
2022-12-20T00:37:01.061Z,6.80
2022-12-20T00:39:29.569Z,6.70
2022-12-20T00:42:00.152Z,6.70
2022-12-20T00:44:28.717Z,6.80
2022-12-20T00:46:58.120Z,7.00
2022-12-20T00:49:27.089Z,7.10
2022-12-20T00:51:55.833Z,7.20
2022-12-20T00:54:25.447Z,7.30
2022-12-20T00:56:56.082Z,7.20
2022-12-20T00:59:29.073Z,7.30
2022-12-20T01:01:58.114Z,7.20
2022-12-20T01:04:29.786Z,7.20
2022-12-20T01:06:58.326Z,7.20
2022-12-20T01:09:27.703Z,7.20
2022-12-20T01:11:59.167Z,7.10
2022-12-20T01:14:32.431Z,7.00
2022-12-20T01:17:01.141Z,7.00
2022-12-20T01:19:29.831Z,7.00
2022-12-20T01:21:58.401Z,6.90
2022-12-20T01:24:27.373Z,6.80
2022-12-20T01:26:59.189Z,6.80
2022-12-20T01:29:28.020Z,6.70
2022-12-20T01:31:58.744Z,6.70
2022-12-20T01:34:27.578Z,6.70
2022-12-20T01:36:58.568Z,6.70
2022-12-20T01:39:27.329Z,6.80
2022-12-20T01:41:58.861Z,6.90
2022-12-20T01:44:59.624Z,6.90
2022-12-20T01:47:35.925Z,7.00
2022-12-20T01:50:10.595Z,7.10
2022-12-20T01:52:46.328Z,7.10
2022-12-20T01:55:21.430Z,7.20
2022-12-20T01:57:57.320Z,7.20
2022-12-20T02:00:26.914Z,7.30
2022-12-20T02:03:08.729Z,7.30
2022-12-20T02:05:41.355Z,7.30
2022-12-20T02:08:11.305Z,7.30
2022-12-20T02:11:03.413Z,7.40
2022-12-20T02:13:47.640Z,7.40
2022-12-20T02:16:23.586Z,7.50
2022-12-20T02:19:08.214Z,7.50
2022-12-20T02:21:44.614Z,7.40
2022-12-20T02:24:55.528Z,7.60
2022-12-20T02:27:55.496Z,7.60
2022-12-20T02:30:32.254Z,7.60
2022-12-20T02:33:05.826Z,7.70
2022-12-20T02:35:38.467Z,7.80
2022-12-20T02:38:31.871Z,7.80
2022-12-20T02:41:08.991Z,7.80
2022-12-20T02:44:00.439Z,7.80
2022-12-20T02:46:34.157Z,7.70
2022-12-20T02:49:11.536Z,7.70
2022-12-20T02:51:44.784Z,7.60
2022-12-20T02:54:14.539Z,7.70
2022-12-20T02:56:51.876Z,7.70
2022-12-20T02:59:27.275Z,7.60
2022-12-20T03:02:01.253Z,7.60
2022-12-20T03:04:37.041Z,7.60
2022-12-20T03:07:10.203Z,7.60
2022-12-20T03:09:47.152Z,7.70
2022-12-20T03:12:17.919Z,7.70
2022-12-20T03:14:46.467Z,7.60
2022-12-20T03:17:16.728Z,7.60
2022-12-20T03:19:45.161Z,7.60
2022-12-20T03:22:13.542Z,7.60
2022-12-20T03:24:42.172Z,7.60
2022-12-20T03:27:10.556Z,7.70
2022-12-20T03:29:39.395Z,7.70
2022-12-20T03:32:08.059Z,7.70
2022-12-20T03:34:38.885Z,7.70
2022-12-20T03:37:07.542Z,7.70
2022-12-20T03:39:36.192Z,7.80
2022-12-20T03:42:11.978Z,7.70
2022-12-20T03:44:40.941Z,7.70
2022-12-20T03:47:15.787Z,7.80
2022-12-20T03:49:46.425Z,7.90
2022-12-20T03:52:15.832Z,7.90
2022-12-20T03:54:44.989Z,7.90
2022-12-20T03:57:13.796Z,8.00
2022-12-20T03:59:43.445Z,8.00
2022-12-20T04:02:12.663Z,8.00
2022-12-20T04:04:41.702Z,8.00
2022-12-20T04:07:12.617Z,8.00
2022-12-20T04:09:41.615Z,8.10
2022-12-20T04:12:10.451Z,8.20
2022-12-20T04:14:39.159Z,8.30
2022-12-20T04:17:08.868Z,8.30
2022-12-20T04:19:37.513Z,8.30
2022-12-20T04:22:06.517Z,8.30
2022-12-20T04:24:36.952Z,8.30
2022-12-20T04:27:05.933Z,8.30
2022-12-20T04:29:35.003Z,8.30
2022-12-20T04:32:03.923Z,8.20
2022-12-20T04:34:32.905Z,8.20
2022-12-20T04:37:01.832Z,8.20
2022-12-20T04:39:34.016Z,8.20
2022-12-20T04:42:07.186Z,8.10
2022-12-20T04:44:39.749Z,8.10
2022-12-20T04:47:08.639Z,8.10
2022-12-20T04:49:37.910Z,8.20
2022-12-20T04:52:28.021Z,8.20
2022-12-20T04:54:57.069Z,8.20
2022-12-20T04:57:29.476Z,8.20
2022-12-20T04:59:58.661Z,8.20
2022-12-20T05:02:27.620Z,8.30
2022-12-20T05:04:57.332Z,8.30
2022-12-20T05:07:26.980Z,8.40
2022-12-20T05:10:09.388Z,8.50
2022-12-20T05:12:47.069Z,8.50
2022-12-20T05:15:15.795Z,8.50
2022-12-20T05:17:50.601Z,8.50
2022-12-20T05:20:19.410Z,8.60
2022-12-20T05:23:09.053Z,8.70
2022-12-20T05:26:06.115Z,8.60
2022-12-20T05:28:39.105Z,8.60
2022-12-20T05:31:08.221Z,8.60
2022-12-20T05:33:42.393Z,8.60
2022-12-20T05:36:11.432Z,8.50
2022-12-20T05:38:40.751Z,8.50
2022-12-20T05:41:10.111Z,8.50
2022-12-20T05:43:40.568Z,8.50
2022-12-20T05:46:10.124Z,8.40
2022-12-20T05:48:39.330Z,8.40
2022-12-20T05:51:09.622Z,8.50
2022-12-20T05:53:38.687Z,8.50
2022-12-20T05:56:08.810Z,8.60
2022-12-20T05:58:46.603Z,8.50
2022-12-20T06:01:18.633Z,8.60
2022-12-20T06:03:48.391Z,8.60
2022-12-20T06:07:13.193Z,8.50
2022-12-20T06:10:44.212Z,8.50
2022-12-20T06:13:22.787Z,8.50
2022-12-20T06:16:32.605Z,8.50
2022-12-20T06:19:21.774Z,8.40
2022-12-20T06:21:59.176Z,8.40
2022-12-20T06:24:28.571Z,8.40
2022-12-20T06:26:58.443Z,8.50
2022-12-20T06:29:27.631Z,8.50
2022-12-20T06:31:58.315Z,8.50
2022-12-20T06:34:30.474Z,8.60
2022-12-20T06:36:59.323Z,8.50
2022-12-20T06:39:29.447Z,8.50
2022-12-20T06:42:02.227Z,8.50
2022-12-20T06:44:31.239Z,8.60
2022-12-20T06:47:02.205Z,8.50
2022-12-20T06:49:33.775Z,8.50
2022-12-20T06:52:10.410Z,8.60
2022-12-20T06:54:51.871Z,8.60
2022-12-20T07:01:45.743Z,8.50
2022-12-20T07:04:06.942Z,8.50
2022-12-20T07:06:35.721Z,8.50
2022-12-20T07:09:13.936Z,8.50
2022-12-20T07:11:46.793Z,8.50
2022-12-20T07:14:15.872Z,8.50
2022-12-20T07:17:04.746Z,8.50
2022-12-20T07:19:39.003Z,8.50
2022-12-20T07:22:09.502Z,8.50
2022-12-20T07:24:41.566Z,8.60
2022-12-20T07:27:14.806Z,8.60
2022-12-20T07:29:47.025Z,8.60
2022-12-20T07:32:17.436Z,8.60
2022-12-20T07:34:59.412Z,8.60
2022-12-20T07:37:37.061Z,8.60
2022-12-20T07:40:10.224Z,8.70
2022-12-20T07:42:44.527Z,8.70
2022-12-20T07:45:17.529Z,8.70
2022-12-20T07:47:46.161Z,8.70
2022-12-20T07:50:16.776Z,8.70
2022-12-20T07:52:50.915Z,8.80
2022-12-20T07:55:20.666Z,8.80
2022-12-20T07:57:57.583Z,8.70
2022-12-20T08:00:27.002Z,8.70
2022-12-20T08:03:06.130Z,8.80
2022-12-20T08:05:42.885Z,8.80
2022-12-20T08:08:12.786Z,8.80
2022-12-20T08:10:42.339Z,8.80
2022-12-20T08:13:20.495Z,8.90
2022-12-20T08:15:49.500Z,8.90
2022-12-20T08:18:18.387Z,8.90
2022-12-20T08:20:48.797Z,8.90
2022-12-20T08:23:17.448Z,9.00
2022-12-20T08:25:46.083Z,9.00
2022-12-20T08:28:18.197Z,9.00
2022-12-20T08:30:47.311Z,9.10
2022-12-20T08:33:16.855Z,9.10
2022-12-20T08:35:49.632Z,9.10
2022-12-20T08:38:18.591Z,9.20
2022-12-20T08:40:47.667Z,9.20
2022-12-20T08:43:16.346Z,9.20
2022-12-20T08:45:45.336Z,9.20
2022-12-20T08:48:17.632Z,9.20
2022-12-20T08:50:48.286Z,9.20
2022-12-20T08:53:17.308Z,9.20
2022-12-20T08:55:46.064Z,9.20
2022-12-20T08:58:17.294Z,9.30
2022-12-20T09:00:46.959Z,9.30
2022-12-20T09:03:16.389Z,9.30
2022-12-20T09:05:51.543Z,9.40
2022-12-20T09:08:23.418Z,9.40
2022-12-20T09:10:57.412Z,9.40
2022-12-20T09:13:27.067Z,9.50
2022-12-20T09:16:01.253Z,9.40
2022-12-20T09:18:30.292Z,9.40
2022-12-20T09:21:04.153Z,9.50
2022-12-20T09:23:33.986Z,9.50
2022-12-20T09:26:05.309Z,9.60
2022-12-20T09:28:35.151Z,9.60
2022-12-20T09:31:06.946Z,9.60
2022-12-20T09:33:37.332Z,9.70
2022-12-20T09:36:12.364Z,9.70
2022-12-20T09:38:44.498Z,9.70
2022-12-20T09:41:34.798Z,9.60
2022-12-20T09:44:17.361Z,9.70
2022-12-20T09:46:53.618Z,9.70
2022-12-20T09:49:30.171Z,9.70
2022-12-20T09:52:36.207Z,9.60
2022-12-20T09:55:22.734Z,9.60
2022-12-20T09:58:16.270Z,9.70
2022-12-20T10:00:53.874Z,9.70
2022-12-20T10:03:32.881Z,9.70
2022-12-20T10:06:17.580Z,9.70
2022-12-20T10:09:02.258Z,9.70
2022-12-20T10:11:52.912Z,9.70
2022-12-20T10:15:00.016Z,9.70
2022-12-20T10:17:51.597Z,9.80
2022-12-20T10:20:39.088Z,9.80
2022-12-20T10:23:29.361Z,9.70
2022-12-20T10:26:03.341Z,9.70
2022-12-20T10:28:42.233Z,9.60
2022-12-20T10:31:17.067Z,9.60
2022-12-20T10:33:47.304Z,9.70
2022-12-20T10:36:29.299Z,9.70
2022-12-20T10:39:01.206Z,9.80
2022-12-20T10:41:52.328Z,9.90
2022-12-20T10:44:31.002Z,10.10
2022-12-20T10:47:01.898Z,10.20
2022-12-20T10:49:34.349Z,10.20
2022-12-20T10:52:18.152Z,10.20
2022-12-20T10:54:51.654Z,10.40
2022-12-20T10:57:31.825Z,10.40
2022-12-20T11:00:04.507Z,10.50
2022-12-20T11:02:41.539Z,10.70
2022-12-20T11:05:26.412Z,11.00
2022-12-20T11:10:52.360Z,10.90
2022-12-20T11:13:29.681Z,11.00
2022-12-20T11:16:01.712Z,11.00
2022-12-20T11:18:44.942Z,11.00
2022-12-20T11:21:32.804Z,11.10
2022-12-20T11:24:13.431Z,11.10
2022-12-20T11:27:02.194Z,11.10
2022-12-20T11:30:05.997Z,11.10
2022-12-20T11:33:07.481Z,11.00
2022-12-20T11:35:58.028Z,11.00
2022-12-20T11:38:44.828Z,11.00
2022-12-20T11:41:31.823Z,11.20
2022-12-20T11:44:26.603Z,11.20
2022-12-20T11:47:32.859Z,11.30
2022-12-20T11:50:27.186Z,11.40
2022-12-20T11:53:09.278Z,11.40
2022-12-20T11:55:44.977Z,11.40
2022-12-20T11:58:25.123Z,11.40
2022-12-20T12:01:03.093Z,11.30
2022-12-20T12:03:38.036Z,11.30
2022-12-20T12:06:13.453Z,11.20
2022-12-20T12:08:50.207Z,11.20
2022-12-20T12:14:36.672Z,11.10
2022-12-20T12:17:15.011Z,11.20
2022-12-20T12:19:51.819Z,11.20
2022-12-20T12:22:34.641Z,11.20
2022-12-20T12:25:15.390Z,11.20
2022-12-20T12:27:44.395Z,11.20
2022-12-20T12:30:17.524Z,11.20
2022-12-20T12:33:04.046Z,11.20
2022-12-20T12:36:29.303Z,11.20
2022-12-20T12:40:00.399Z,11.30
2022-12-20T12:43:12.701Z,11.30
2022-12-20T12:45:49.793Z,11.40
2022-12-20T12:48:25.003Z,11.40
2022-12-20T12:50:58.151Z,11.40
2022-12-20T12:53:38.233Z,11.30
2022-12-20T12:56:45.514Z,11.20
2022-12-20T12:59:48.592Z,11.20
2022-12-20T13:02:50.211Z,11.20
2022-12-20T13:05:36.889Z,11.10
2022-12-20T13:08:17.822Z,11.20
2022-12-20T13:11:30.811Z,11.20
2022-12-20T13:14:33.953Z,11.20
2022-12-20T13:17:49.229Z,11.10
2022-12-20T13:20:23.814Z,11.10
2022-12-20T13:23:18.705Z,11.00
2022-12-20T13:26:01.090Z,10.90
2022-12-20T13:28:49.936Z,10.90
2022-12-20T13:31:37.037Z,11.00
2022-12-20T13:34:39.134Z,10.90
2022-12-20T13:37:30.072Z,10.90
2022-12-20T13:40:02.307Z,10.70
2022-12-20T13:42:47.078Z,10.60
2022-12-20T13:45:17.666Z,10.50
2022-12-20T13:47:55.504Z,10.40
2022-12-20T13:50:35.720Z,10.30
2022-12-20T13:53:06.174Z,10.30
2022-12-20T13:55:42.707Z,10.30
2022-12-20T13:58:19.639Z,10.20
2022-12-20T14:00:51.679Z,10.20
2022-12-20T14:03:26.961Z,10.20
2022-12-20T14:06:03.256Z,10.10
2022-12-20T14:08:39.297Z,10.10
2022-12-20T14:11:17.085Z,10.10
2022-12-20T14:13:59.702Z,10.20
2022-12-20T14:16:33.139Z,10.10
2022-12-20T14:19:07.082Z,10.20
2022-12-20T14:21:50.381Z,10.20
2022-12-20T14:24:26.789Z,10.20
2022-12-20T14:27:01.094Z,10.10
2022-12-20T14:29:32.845Z,10.10
2022-12-20T14:32:02.990Z,10.00
2022-12-20T14:34:41.465Z,9.90
2022-12-20T14:37:31.301Z,9.90
2022-12-20T14:40:06.030Z,9.90
2022-12-20T14:42:38.695Z,9.90
2022-12-20T14:45:21.071Z,9.90
2022-12-20T14:48:03.146Z,9.90
2022-12-20T14:50:36.332Z,9.90
2022-12-20T14:53:17.353Z,9.90
2022-12-20T14:55:52.528Z,9.90
2022-12-20T14:58:36.148Z,9.90
2022-12-20T15:01:25.356Z,9.90
2022-12-20T15:04:08.784Z,9.90
2022-12-20T15:06:44.840Z,9.90
2022-12-20T15:09:28.109Z,9.90
2022-12-20T15:12:00.407Z,9.90
2022-12-20T15:14:40.891Z,9.90
2022-12-20T15:17:15.924Z,9.80
2022-12-20T15:19:46.110Z,9.80
2022-12-20T15:22:22.678Z,9.80
2022-12-20T15:24:52.062Z,9.80
2022-12-20T15:27:28.722Z,9.80
2022-12-20T15:30:00.638Z,9.80
2022-12-20T15:32:31.304Z,9.80
2022-12-20T15:35:01.887Z,9.80
2022-12-20T15:37:31.299Z,9.80
2022-12-20T15:40:15.222Z,9.80
2022-12-20T15:42:48.412Z,9.80
2022-12-20T15:45:18.567Z,9.80
2022-12-20T15:47:50.949Z,9.80
2022-12-20T15:50:27.849Z,9.70
2022-12-20T15:53:34.434Z,9.70
2022-12-20T15:56:03.410Z,9.80
2022-12-20T15:58:32.591Z,9.80
2022-12-20T16:01:03.807Z,9.80
2022-12-20T16:03:52.165Z,9.80
2022-12-20T16:06:44.773Z,9.90
2022-12-20T16:09:38.472Z,9.90
2022-12-20T16:12:30.055Z,9.80
2022-12-20T16:15:22.977Z,9.80
2022-12-20T16:17:59.346Z,9.90
2022-12-20T16:20:32.972Z,9.90
2022-12-20T16:23:27.341Z,9.90
2022-12-20T16:25:58.062Z,9.90
2022-12-20T16:28:27.503Z,9.90
2022-12-20T16:31:01.368Z,9.90
2022-12-20T16:33:29.995Z,9.90
2022-12-20T16:36:03.207Z,9.90
2022-12-20T16:38:33.090Z,9.90
2022-12-20T16:41:15.131Z,9.90
2022-12-20T16:43:44.980Z,9.90
2022-12-20T16:46:17.228Z,9.90
2022-12-20T16:48:47.000Z,9.90
2022-12-20T16:51:36.150Z,9.90
2022-12-20T16:54:19.813Z,9.80
2022-12-20T16:56:52.396Z,9.80
2022-12-20T16:59:22.854Z,9.90
2022-12-20T17:02:03.059Z,9.90
2022-12-20T17:04:35.168Z,9.90
2022-12-20T17:07:07.142Z,9.90
2022-12-20T17:09:39.689Z,9.90
2022-12-20T17:12:17.099Z,9.90
2022-12-20T17:14:46.621Z,9.90
2022-12-20T17:17:16.047Z,9.90
2022-12-20T17:19:46.846Z,9.90
2022-12-20T17:22:27.934Z,10.00
2022-12-20T17:25:01.519Z,10.00
2022-12-20T17:27:30.599Z,10.00
2022-12-20T17:30:02.291Z,9.90
2022-12-20T17:32:30.995Z,9.90
2022-12-20T17:34:59.639Z,9.90
2022-12-20T17:37:28.779Z,9.90
2022-12-20T17:39:58.544Z,9.90
2022-12-20T17:42:31.636Z,9.90
2022-12-20T17:45:00.532Z,9.90
2022-12-20T17:47:29.319Z,9.90
2022-12-20T17:50:01.679Z,9.90
2022-12-20T17:52:30.425Z,9.90
2022-12-20T17:55:02.470Z,9.90
2022-12-20T17:57:32.453Z,9.90
2022-12-20T18:00:01.180Z,9.90
2022-12-20T18:02:30.269Z,10.00
2022-12-20T18:05:02.199Z,10.00
2022-12-20T18:07:33.980Z,9.90
2022-12-20T18:10:02.793Z,9.90
2022-12-20T18:12:37.477Z,9.90
2022-12-20T18:15:13.182Z,9.90
2022-12-20T18:17:46.170Z,9.90
2022-12-20T18:20:16.417Z,9.90
2022-12-20T18:22:48.528Z,9.90
2022-12-20T18:25:18.425Z,10.00
2022-12-20T18:27:48.625Z,9.90
2022-12-20T18:30:18.088Z,9.90
2022-12-20T18:32:47.556Z,9.90
2022-12-20T18:35:16.413Z,9.90
2022-12-20T18:37:45.526Z,10.00
2022-12-20T18:40:14.290Z,9.90
2022-12-20T18:42:43.143Z,9.80
2022-12-20T18:45:14.133Z,9.80
2022-12-20T18:47:43.036Z,9.80
2022-12-20T18:50:13.719Z,9.90
2022-12-20T18:52:56.550Z,9.80
2022-12-20T18:55:34.020Z,9.90
2022-12-20T18:58:03.366Z,9.90
2022-12-20T19:00:35.033Z,9.90
2022-12-20T19:03:07.292Z,9.90
2022-12-20T19:05:44.781Z,9.90
2022-12-20T19:08:13.937Z,10.00
2022-12-20T19:10:44.861Z,10.00
2022-12-20T19:13:14.350Z,10.10
2022-12-20T19:15:44.717Z,10.10
2022-12-20T19:18:15.028Z,10.10
2022-12-20T19:20:44.056Z,10.10
2022-12-20T19:23:13.411Z,10.20
2022-12-20T19:25:50.552Z,10.30
2022-12-20T19:28:20.420Z,10.30
2022-12-20T19:30:57.663Z,10.30
2022-12-20T19:33:32.407Z,10.40
2022-12-20T19:36:01.175Z,10.30
2022-12-20T19:38:29.783Z,10.40
2022-12-20T19:41:01.845Z,10.40
2022-12-20T19:43:31.654Z,10.30
2022-12-20T19:46:04.709Z,10.30
2022-12-20T19:48:37.422Z,10.20
2022-12-20T19:51:10.425Z,10.30
2022-12-20T19:53:40.244Z,10.30
2022-12-20T19:56:13.649Z,10.20
2022-12-20T19:58:42.790Z,10.20
2022-12-20T20:01:16.306Z,10.20
2022-12-20T20:03:46.026Z,10.20
2022-12-20T20:06:21.747Z,10.20
2022-12-20T20:08:51.049Z,10.30
2022-12-20T20:11:21.717Z,10.30
2022-12-20T20:13:55.468Z,10.30
2022-12-20T20:16:33.833Z,10.20
2022-12-20T20:19:03.288Z,10.20
2022-12-20T20:21:31.878Z,10.20
2022-12-20T20:24:00.695Z,10.20
2022-12-20T20:26:32.098Z,10.10
2022-12-20T20:29:03.442Z,10.10
2022-12-20T20:31:33.672Z,10.10
2022-12-20T20:34:04.893Z,10.10
2022-12-20T20:36:33.998Z,10.10
2022-12-20T20:39:04.118Z,10.10
2022-12-20T20:41:33.025Z,10.10
2022-12-20T20:44:04.336Z,10.10
2022-12-20T20:46:37.021Z,10.10
2022-12-20T20:49:06.829Z,10.10
2022-12-20T20:51:35.949Z,10.20
2022-12-20T20:54:05.471Z,10.10
2022-12-20T20:56:34.158Z,10.10
2022-12-20T20:59:08.107Z,10.10
2022-12-20T21:01:40.888Z,10.10
2022-12-20T21:04:09.581Z,10.10
2022-12-20T21:06:43.483Z,10.10
2022-12-20T21:09:12.691Z,10.10
2022-12-20T21:11:41.728Z,10.10
2022-12-20T21:14:12.370Z,10.10
2022-12-20T21:16:45.849Z,10.10
2022-12-20T21:19:15.115Z,10.10
2022-12-20T21:21:43.800Z,10.00
2022-12-20T21:24:18.676Z,10.10
2022-12-20T21:26:47.671Z,10.00
2022-12-20T21:29:17.792Z,10.00
2022-12-20T21:31:53.068Z,10.00
2022-12-20T21:34:26.835Z,10.00
2022-12-20T21:36:58.482Z,10.00
2022-12-20T21:39:30.144Z,10.00
2022-12-20T21:42:01.850Z,10.00
2022-12-20T21:44:31.068Z,10.00
2022-12-20T21:47:05.586Z,10.00
2022-12-20T21:49:34.812Z,10.00
2022-12-20T21:52:03.271Z,10.00
2022-12-20T21:54:31.774Z,10.10
2022-12-20T21:57:00.731Z,10.00
2022-12-20T21:59:29.710Z,10.00
2022-12-20T22:02:03.488Z,10.00
2022-12-20T22:04:32.509Z,10.00
2022-12-20T22:07:01.222Z,10.00
2022-12-20T22:09:29.843Z,10.00
2022-12-20T22:11:58.445Z,10.00
2022-12-20T22:14:27.218Z,10.00
2022-12-20T22:16:58.949Z,10.00
2022-12-20T22:19:29.079Z,10.00
2022-12-20T22:21:58.697Z,10.00
2022-12-20T22:24:27.981Z,10.00
2022-12-20T22:26:59.811Z,10.00
2022-12-20T22:29:28.402Z,9.90
2022-12-20T22:31:59.959Z,10.00
2022-12-20T22:34:30.451Z,9.90
2022-12-20T22:36:59.148Z,10.00
2022-12-20T22:39:27.852Z,10.00
2022-12-20T22:42:03.604Z,9.90
2022-12-20T22:44:32.355Z,9.90
2022-12-20T22:47:00.926Z,9.90
2022-12-20T22:49:31.573Z,9.90
2022-12-20T22:52:07.239Z,9.90
2022-12-20T22:54:37.198Z,9.90
2022-12-20T22:57:05.946Z,9.90
2022-12-20T22:59:36.867Z,9.90
2022-12-20T23:02:06.027Z,9.90
2022-12-20T23:04:39.043Z,9.90
2022-12-20T23:07:08.494Z,9.90
2022-12-20T23:09:46.222Z,9.90
2022-12-20T23:12:32.906Z,10.00
2022-12-20T23:15:21.166Z,10.00
2022-12-20T23:17:50.274Z,10.00
2022-12-20T23:20:38.397Z,10.00
2022-12-20T23:23:09.278Z,10.00
2022-12-20T23:25:44.980Z,10.10
2022-12-20T23:28:13.649Z,10.10
2022-12-20T23:30:46.651Z,10.10
2022-12-20T23:33:15.550Z,10.10
2022-12-20T23:35:45.771Z,10.10
2022-12-20T23:38:14.578Z,10.20
2022-12-20T23:40:43.488Z,10.10
2022-12-20T23:43:12.441Z,10.20
2022-12-20T23:45:42.116Z,10.20
2022-12-20T23:48:10.925Z,10.20
2022-12-20T23:50:41.468Z,10.30
2022-12-20T23:53:15.209Z,10.20
2022-12-20T23:55:44.038Z,10.30
2022-12-20T23:58:12.878Z,10.20
